Gas City, IN

8:55 PM EDT on August 29, 2016 (GMT -0400)
MY Yard Barn | | Change Station

Elev 853 ft 40.49 °N, 85.62 °W | Updated 3 minutes ago

Haze
Haze
79.0 °F
Feels Like 83 °F
N
1.3
Wind Variable Wind from NE
Gusts 2.5 mph

Today
High -- | Low -- °F
--% Chance of Precip.
Yesterday
High -- | Low -- °F
Precip. -- in
Pressure 30.19 in
Visibility 5.0 miles
Clouds Clear
Heat Index 83 °F
Dew Point 74 °F
Humidity 84%
Rainfall 0.00 in
Snow Depth Not available.
7:07 AM 8:18 PM
Waning Crescent, 6% visible
METAR KMZZ 300035Z AUTO 05003KT 5SM HZ CLR 25/22 A3019 RMK AO2 T02450217
Pressure 30.19 in
Visibility 5.0 miles
Clouds Clear
Heat Index 83 °F
Dew Point 74 °F
Humidity 84%
Rainfall 0.00 in
Snow Depth Not available.
7:07 AM 8:18 PM
Waning Crescent, 6% visible
METAR KMZZ 300035Z AUTO 05003KT 5SM HZ CLR 25/22 A3019 RMK AO2 T02450217

10-Day Weather Forecast

Almanac

Astronomy

Aug. 29, 2016 Rise Set
Actual Time
Civil Twilight
Nautical Twilight
Astronomical Twilight
Moon
Length of Visible Light
Length of Day
Tomorrow will be .
, % of the Moon is Illuminated

Today's Extremes

State Highs State Lows

Community

WunderPhotos

Upload Photos

1,935,707 photos uploaded!

WunderBlog® & News

Nearby

Air Quality

  Air Quality AQ Index Pollutant
Not available.

Snow Depth

Station Depth Elevation

Earthquake Activity

City Distance Mag. Time & Date
Minimum magnitude displayed is 2.5.

Coastal Water Temperatures

Place Temperature

Stations

Nearby Weather Stations

Station Location Temp. Windchill Dew Point Humidity Wind Precip. Elev Updated Type
                   

Watches & Warnings

There are currently no watches in effect.